Time;durP1;ratioP1;P1;durP2;ratioP2;P2;SDS_P1;SDS_P2;PMS_P1;PMS_P2;Temp;Humidity;BMP_temperature;BMP_pressure;BME280_temperature;BME280_humidity;BME280_pressure;Samples;Min_cycle;Max_cycle;Signal;HPM_P1;HPM_P2
2023/01/22 00:02:20;;;;;;;;;;;1.10;99.90;;;;;;5037694;28;19974;-75
2023/01/22 00:04:47;;;;;;;;;;;1.10;99.90;;;;;;5037923;28;20260;-75
2023/01/22 00:07:14;;;;;;;;;;;3.20;99.90;;;;;;5058721;28;20383;-75
2023/01/22 00:09:40;;;;;;;;;;;1.00;99.90;;;;;;5062745;28;19924;-75
2023/01/22 00:12:06;;;;;;;;;;;0.90;99.90;;;;;;5032225;28;19925;-75
2023/01/22 00:14:31;;;;;;;;;;;1.10;99.90;;;;;;5049097;28;20311;-76
2023/01/22 00:16:57;;;;;;;;;;;0.80;99.90;;;;;;5052453;28;19925;-75
2023/01/22 00:19:22;;;;;;;;;;;0.80;99.90;;;;;;5055568;28;19928;-76
2023/01/22 00:21:48;;;;;;;;;;;1.50;99.90;;;;;;5053026;28;19921;-76
2023/01/22 00:24:13;;;;;;;;;;;0.80;99.90;;;;;;5056181;28;19927;-75
2023/01/22 00:26:39;;;;;;;;;;;0.80;99.90;;;;;;5037880;28;19924;-75
2023/01/22 00:29:08;;;;;;;;;;;0.70;99.90;;;;;;5036709;28;19928;-75
2023/01/22 00:31:34;;;;;;;;;;;0.70;99.90;;;;;;5056149;28;20350;-76
2023/01/22 00:33:59;;;;;;;;;;;0.70;99.90;;;;;;5053299;28;20007;-75
2023/01/22 00:36:25;;;;;;;;;;;-0.50;99.90;;;;;;5056599;28;20299;-75
2023/01/22 00:38:51;;;;;;;;;;;0.70;99.90;;;;;;5029643;28;19982;-75
2023/01/22 00:41:17;;;;;;;;;;;0.70;99.90;;;;;;5033955;28;20974;-75
2023/01/22 00:43:43;;;;;;;;;;;0.70;99.90;;;;;;5034586;28;19921;-75
2023/01/22 00:46:09;;;;;;;;;;;0.70;99.90;;;;;;5054962;28;19927;-75
2023/01/22 00:48:35;;;;;;;;;;;0.80;99.90;;;;;;5030329;28;19927;-75
2023/01/22 00:51:01;;;;;;;;;;;0.80;99.90;;;;;;5034420;28;20306;-75
2023/01/22 00:53:26;;;;;;;;;;;0.70;99.90;;;;;;5037676;28;19921;-75
2023/01/22 00:55:54;;;;;;;;;;;0.70;99.90;;;;;;5049930;28;20407;-75
2023/01/22 00:58:20;;;;;;;;;;;0.80;99.90;;;;;;5054249;28;19931;-75
2023/01/22 01:00:46;;;;;;;;;;;0.80;99.90;;;;;;5033785;28;19925;-75
2023/01/22 01:03:29;;;;;;;;;;;0.80;99.90;;;;;;5032877;28;19921;-75
2023/01/22 01:06:05;;;;;;;;;;;2.50;99.90;;;;;;5026045;28;19921;-76
2023/01/22 01:08:32;;;;;;;;;;;0.80;99.90;;;;;;5061705;28;19921;-75
2023/01/22 01:10:59;;;;;;;;;;;0.70;99.90;;;;;;5059965;28;20327;-75
2023/01/22 01:13:25;;;;;;;;;;;2.40;99.90;;;;;;5038902;28;20307;-75
2023/01/22 01:15:57;;;;;;;;;;;0.80;99.90;;;;;;5064315;28;19917;-75
2023/01/22 01:18:23;;;;;;;;;;;0.70;99.90;;;;;;5030909;28;20011;-75
2023/01/22 01:20:52;;;;;;;;;;;2.00;99.90;;;;;;5036724;28;20012;-76
2023/01/22 01:23:17;;;;;;;;;;;0.80;99.90;;;;;;5058939;28;19971;-76
2023/01/22 01:25:43;;;;;;;;;;;0.80;99.90;;;;;;5032811;28;19929;-76
2023/01/22 01:28:08;;;;;;;;;;;0.80;99.90;;;;;;5041373;28;19920;-76
2023/01/22 01:30:34;;;;;;;;;;;0.90;99.90;;;;;;5029648;28;20755;-76
2023/01/22 01:32:59;;;;;;;;;;;0.80;99.90;;;;;;5038243;28;19931;-76
2023/01/22 01:35:25;;;;;;;;;;;2.10;99.90;;;;;;5065520;28;20264;-76
2023/01/22 01:37:51;;;;;;;;;;;0.90;99.90;;;;;;5040310;28;19950;-75
2023/01/22 01:40:16;;;;;;;;;;;0.90;99.90;;;;;;5041041;28;19928;-76
2023/01/22 01:42:42;;;;;;;;;;;0.90;99.90;;;;;;5063216;28;19916;-75
2023/01/22 01:45:22;;;;;;;;;;;2.00;99.90;;;;;;5063163;28;20285;-75
2023/01/22 01:48:11;;;;;;;;;;;0.90;99.90;;;;;;5060072;28;20268;-76
2023/01/22 01:50:39;;;;;;;;;;;0.90;99.90;;;;;;5026984;28;19920;-76
2023/01/22 01:53:05;;;;;;;;;;;0.80;99.90;;;;;;5063021;28;20363;-75
2023/01/22 01:55:32;;;;;;;;;;;0.80;99.90;;;;;;5064765;28;19983;-75
2023/01/22 01:58:01;;;;;;;;;;;0.60;99.90;;;;;;5043919;28;19928;-75
2023/01/22 02:00:29;;;;;;;;;;;0.80;99.90;;;;;;5063513;28;19920;-75
2023/01/22 02:02:56;;;;;;;;;;;0.70;99.90;;;;;;5040840;28;20359;-75
2023/01/22 02:05:22;;;;;;;;;;;0.70;99.90;;;;;;5039045;28;19921;-76
2023/01/22 02:07:48;;;;;;;;;;;2.40;99.90;;;;;;5030352;28;19921;-76
2023/01/22 02:10:14;;;;;;;;;;;3.60;99.90;;;;;;5057713;28;20284;-76
2023/01/22 02:12:39;;;;;;;;;;;0.70;99.90;;;;;;5047476;28;20326;-76
2023/01/22 02:15:05;;;;;;;;;;;2.40;99.90;;;;;;5044709;28;19928;-75
2023/01/22 02:17:31;;;;;;;;;;;0.70;99.90;;;;;;5064891;28;19925;-76
2023/01/22 02:19:56;;;;;;;;;;;0.40;99.90;;;;;;5063146;28;19924;-76
2023/01/22 02:22:24;;;;;;;;;;;0.70;99.90;;;;;;5063758;28;19964;-75
2023/01/22 02:24:50;;;;;;;;;;;4.00;99.90;;;;;;5064451;28;19924;-75
2023/01/22 02:27:15;;;;;;;;;;;0.50;99.90;;;;;;5026438;28;20660;-75
2023/01/22 02:29:41;;;;;;;;;;;2.40;99.90;;;;;;5061114;28;19920;-75
2023/01/22 02:32:06;;;;;;;;;;;2.00;99.90;;;;;;5039622;28;20368;-75
2023/01/22 02:34:32;;;;;;;;;;;0.70;99.90;;;;;;5061499;28;20015;-75
2023/01/22 02:36:57;;;;;;;;;;;0.70;99.90;;;;;;5062432;28;20733;-75
2023/01/22 02:39:23;;;;;;;;;;;0.80;99.90;;;;;;5029293;28;20463;-75
2023/01/22 02:41:49;;;;;;;;;;;0.80;99.90;;;;;;5063398;28;20007;-76
2023/01/22 02:44:14;;;;;;;;;;;0.80;99.90;;;;;;5062307;28;19927;-75
2023/01/22 02:46:40;;;;;;;;;;;0.70;99.90;;;;;;5064986;28;20424;-76
2023/01/22 02:49:05;;;;;;;;;;;0.80;99.90;;;;;;5039193;28;19927;-76
2023/01/22 02:51:31;;;;;;;;;;;0.80;99.90;;;;;;5030393;28;19928;-76
2023/01/22 02:53:57;;;;;;;;;;;0.80;99.90;;;;;;5062048;28;19943;-75
2023/01/22 02:56:22;;;;;;;;;;;0.80;99.90;;;;;;5062950;28;20019;-77
2023/01/22 02:58:48;;;;;;;;;;;0.80;99.90;;;;;;5061057;28;19933;-77
2023/01/22 03:01:19;;;;;;;;;;;0.80;99.90;;;;;;5045178;28;19924;-77
2023/01/22 03:03:48;;;;;;;;;;;0.80;99.90;;;;;;5062366;28;19928;-77
2023/01/22 03:06:14;;;;;;;;;;;0.90;99.90;;;;;;5039743;28;20479;-77
2023/01/22 03:08:43;;;;;;;;;;;0.60;99.90;;;;;;5063897;28;19975;-77
2023/01/22 03:11:09;;;;;;;;;;;0.90;99.90;;;;;;5038546;28;19920;-77
2023/01/22 03:21:47;;;;;;;;;;;1.00;99.90;;;;;;5045472;28;19946;-76
2023/01/22 03:24:13;;;;;;;;;;;0.70;99.90;;;;;;5061792;28;20011;-76
2023/01/22 03:26:38;;;;;;;;;;;1.10;99.90;;;;;;5059854;28;20372;-77
2023/01/22 03:29:04;;;;;;;;;;;1.10;99.90;;;;;;5061610;28;19920;-76
2023/01/22 03:31:30;;;;;;;;;;;2.70;99.90;;;;;;5063369;28;20018;-77
2023/01/22 03:33:56;;;;;;;;;;;4.30;99.90;;;;;;5038258;28;20013;-76
2023/01/22 03:36:21;;;;;;;;;;;1.10;99.90;;;;;;5060631;28;20382;-76
2023/01/22 03:38:47;;;;;;;;;;;1.10;99.90;;;;;;5057085;28;19924;-74
2023/01/22 03:41:13;;;;;;;;;;;1.10;99.90;;;;;;5044151;28;19920;-74
2023/01/22 03:43:39;;;;;;;;;;;1.20;99.90;;;;;;5039018;28;19920;-74
2023/01/22 03:46:14;;;;;;;;;;;1.20;99.90;;;;;;5037521;28;19926;-74
2023/01/22 03:48:40;;;;;;;;;;;1.20;99.90;;;;;;5061721;28;20367;-74
2023/01/22 03:51:13;;;;;;;;;;;3.30;99.90;;;;;;5037733;28;19926;-76
2023/01/22 03:53:40;;;;;;;;;;;1.30;99.90;;;;;;5062931;28;19925;-77
2023/01/22 03:56:07;;;;;;;;;;;3.60;99.90;;;;;;5044870;28;20006;-76
2023/01/22 03:58:33;;;;;;;;;;;1.40;99.90;;;;;;5060811;28;19947;-77
2023/01/22 04:01:03;;;;;;;;;;;2.60;99.90;;;;;;5063315;28;20431;-74
2023/01/22 04:03:29;;;;;;;;;;;1.40;99.90;;;;;;5060776;28;19927;-76
2023/01/22 04:05:58;;;;;;;;;;;1.40;99.90;;;;;;5044759;28;19920;-76
2023/01/22 04:08:25;;;;;;;;;;;1.40;99.90;;;;;;5038170;28;19959;-76
2023/01/22 04:10:50;;;;;;;;;;;1.40;99.90;;;;;;5060077;28;19975;-75
2023/01/22 04:13:16;;;;;;;;;;;1.40;99.90;;;;;;5022558;28;19925;-76
2023/01/22 04:15:42;;;;;;;;;;;2.90;99.90;;;;;;5061827;28;20409;-76
2023/01/22 04:18:08;;;;;;;;;;;1.40;99.90;;;;;;5061568;28;19928;-76
2023/01/22 04:20:33;;;;;;;;;;;3.70;99.90;;;;;;5060841;28;20421;-75
2023/01/22 04:22:59;;;;;;;;;;;2.70;99.90;;;;;;5039618;28;20397;-75
2023/01/22 04:25:24;;;;;;;;;;;2.90;99.90;;;;;;5044922;28;19962;-76
2023/01/22 04:27:50;;;;;;;;;;;1.40;99.90;;;;;;5059152;28;19963;-75
2023/01/22 04:30:16;;;;;;;;;;;1.50;99.90;;;;;;5045562;28;19920;-75
2023/01/22 04:32:42;;;;;;;;;;;1.40;99.90;;;;;;5060135;28;20050;-75
2023/01/22 04:35:08;;;;;;;;;;;1.40;99.90;;;;;;5042524;28;20385;-76
2023/01/22 04:37:33;;;;;;;;;;;1.40;99.90;;;;;;5062336;28;19925;-75
2023/01/22 04:39:59;;;;;;;;;;;1.40;99.90;;;;;;5057553;28;19927;-75
2023/01/22 04:42:26;;;;;;;;;;;1.40;99.90;;;;;;5061543;28;20291;-75
2023/01/22 04:44:51;;;;;;;;;;;1.20;99.90;;;;;;5060386;28;19960;-75
2023/01/22 04:47:17;;;;;;;;;;;1.20;99.90;;;;;;5062623;28;20409;-75
2023/01/22 04:49:43;;;;;;;;;;;1.10;99.90;;;;;;5060449;28;19920;-75
2023/01/22 04:52:08;;;;;;;;;;;1.10;99.90;;;;;;5033700;28;19927;-75
2023/01/22 04:54:34;;;;;;;;;;;2.90;99.90;;;;;;5051283;28;19920;-76
2023/01/22 04:56:59;;;;;;;;;;;1.10;99.90;;;;;;5065411;28;19924;-76
2023/01/22 04:59:25;;;;;;;;;;;1.10;99.90;;;;;;5047797;28;19928;-75
2023/01/22 05:01:51;;;;;;;;;;;1.10;99.90;;;;;;5040874;28;19920;-76
2023/01/22 05:04:17;;;;;;;;;;;0.70;99.90;;;;;;5041673;28;19920;-75
2023/01/22 05:06:43;;;;;;;;;;;1.10;99.90;;;;;;5065961;28;19927;-76
2023/01/22 05:09:08;;;;;;;;;;;1.10;99.90;;;;;;5063394;28;19920;-75
2023/01/22 05:11:34;;;;;;;;;;;1.10;99.90;;;;;;5066368;28;19959;-76
2023/01/22 05:13:59;;;;;;;;;;;2.70;99.90;;;;;;5046856;28;19963;-76
2023/01/22 05:16:25;;;;;;;;;;;2.70;99.90;;;;;;5030541;28;19975;-78
2023/01/22 05:18:50;;;;;;;;;;;1.20;99.90;;;;;;5065500;28;19920;-76
2023/01/22 05:21:16;;;;;;;;;;;1.20;99.90;;;;;;5064318;28;20284;-75
2023/01/22 05:23:42;;;;;;;;;;;0.80;99.90;;;;;;5065996;28;19921;-76
2023/01/22 05:26:08;;;;;;;;;;;2.50;99.90;;;;;;5029032;28;20698;-76
2023/01/22 05:28:33;;;;;;;;;;;1.20;99.90;;;;;;5066388;28;19930;-76
2023/01/22 05:30:59;;;;;;;;;;;1.20;99.90;;;;;;5063220;28;20023;-76
2023/01/22 05:33:27;;;;;;;;;;;2.50;99.90;;;;;;5065314;28;20011;-76
2023/01/22 05:35:56;;;;;;;;;;;1.20;99.90;;;;;;5063029;28;19920;-75
2023/01/22 05:38:22;;;;;;;;;;;1.30;99.90;;;;;;5063966;28;19920;-76
2023/01/22 05:40:48;;;;;;;;;;;1.30;99.90;;;;;;5064856;28;19920;-75
2023/01/22 05:43:13;;;;;;;;;;;3.20;99.90;;;;;;5041335;28;19924;-75
2023/01/22 05:45:39;;;;;;;;;;;2.50;99.90;;;;;;5025401;28;19921;-76
2023/01/22 05:48:04;;;;;;;;;;;1.40;99.90;;;;;;5033957;28;19922;-75
2023/01/22 05:50:30;;;;;;;;;;;2.80;99.90;;;;;;5048558;28;19932;-76
2023/01/22 05:52:55;;;;;;;;;;;1.30;99.90;;;;;;5062787;28;19935;-76
2023/01/22 05:55:21;;;;;;;;;;;1.30;99.90;;;;;;5065116;28;19921;-75
2023/01/22 05:57:47;;;;;;;;;;;1.30;99.90;;;;;;5063482;28;19920;-75
2023/01/22 06:00:13;;;;;;;;;;;1.20;99.90;;;;;;5062822;28;19920;-75
2023/01/22 06:02:38;;;;;;;;;;;1.40;99.90;;;;;;5046643;28;20363;-75
2023/01/22 06:05:04;;;;;;;;;;;1.40;99.90;;;;;;5040358;28;19921;-75
2023/01/22 06:07:30;;;;;;;;;;;1.40;99.90;;;;;;5032034;28;20308;-76
2023/01/22 06:09:55;;;;;;;;;;;1.40;99.90;;;;;;5065686;28;19928;-75
2023/01/22 06:12:21;;;;;;;;;;;1.40;99.90;;;;;;5062634;28;19920;-76
2023/01/22 06:14:46;;;;;;;;;;;1.40;99.90;;;;;;5033619;28;20268;-75
2023/01/22 06:17:12;;;;;;;;;;;1.40;99.90;;;;;;5064214;28;19917;-75
2023/01/22 06:19:37;;;;;;;;;;;1.40;99.90;;;;;;5064139;28;19927;-75
2023/01/22 06:22:03;;;;;;;;;;;1.50;99.90;;;;;;5062989;28;19920;-75
2023/01/22 06:24:29;;;;;;;;;;;1.50;99.90;;;;;;5038084;28;19963;-75
2023/01/22 06:26:55;;;;;;;;;;;2.70;99.90;;;;;;5047123;28;20325;-75
2023/01/22 06:29:20;;;;;;;;;;;2.40;99.90;;;;;;5044436;28;19933;-75
2023/01/22 06:31:46;;;;;;;;;;;3.30;99.90;;;;;;5045044;28;20350;-75
2023/01/22 06:34:11;;;;;;;;;;;3.50;99.90;;;;;;5039165;28;19943;-75
2023/01/22 06:36:37;;;;;;;;;;;3.00;99.90;;;;;;5046168;28;20303;-75
2023/01/22 06:39:03;;;;;;;;;;;1.50;99.90;;;;;;5062824;28;20272;-75
2023/01/22 06:41:28;;;;;;;;;;;1.50;99.90;;;;;;5064277;28;20299;-75
2023/01/22 06:43:54;;;;;;;;;;;3.40;99.90;;;;;;5060268;28;19921;-75
2023/01/22 06:46:19;;;;;;;;;;;1.50;99.90;;;;;;5058204;28;19924;-74
2023/01/22 06:48:45;;;;;;;;;;;1.50;99.90;;;;;;5035063;28;19920;-75
2023/01/22 06:51:11;;;;;;;;;;;1.40;99.90;;;;;;5039912;28;19920;-75
2023/01/22 06:53:37;;;;;;;;;;;1.30;99.90;;;;;;5062868;28;20077;-76
2023/01/22 06:56:03;;;;;;;;;;;1.50;99.90;;;;;;5063343;28;19920;-76
2023/01/22 06:58:28;;;;;;;;;;;1.60;99.90;;;;;;5061885;28;20352;-75
2023/01/22 07:00:54;;;;;;;;;;;1.50;99.90;;;;;;5063079;28;20387;-75
2023/01/22 07:03:19;;;;;;;;;;;2.40;99.90;;;;;;5060771;28;20003;-75
2023/01/22 07:05:45;;;;;;;;;;;0.80;99.90;;;;;;5031190;28;19921;-76
2023/01/22 07:08:13;;;;;;;;;;;1.20;99.90;;;;;;5063554;28;19951;-76
2023/01/22 07:10:39;;;;;;;;;;;1.50;99.90;;;;;;5062111;28;20311;-75
2023/01/22 07:13:06;;;;;;;;;;;1.10;99.90;;;;;;5043007;28;20008;-75
2023/01/22 07:15:32;;;;;;;;;;;3.10;99.90;;;;;;5044051;28;20350;-74
2023/01/22 07:17:57;;;;;;;;;;;1.40;99.90;;;;;;5038954;28;19979;-75
2023/01/22 07:20:23;;;;;;;;;;;1.40;99.90;;;;;;5026241;28;19960;-74
2023/01/22 07:22:49;;;;;;;;;;;1.40;99.90;;;;;;5060616;28;19927;-75
2023/01/22 07:25:15;;;;;;;;;;;1.40;99.90;;;;;;5064530;28;19920;-75
2023/01/22 07:27:40;;;;;;;;;;;1.40;99.90;;;;;;5061630;28;19921;-75
2023/01/22 07:30:06;;;;;;;;;;;1.30;99.90;;;;;;5038636;28;19920;-75
2023/01/22 07:32:32;;;;;;;;;;;1.40;99.90;;;;;;5062515;28;20379;-76
2023/01/22 07:34:57;;;;;;;;;;;1.40;99.90;;;;;;5037749;28;19927;-73
2023/01/22 07:37:23;;;;;;;;;;;1.40;99.90;;;;;;5051280;28;19928;-76
2023/01/22 07:39:48;;;;;;;;;;;1.40;99.90;;;;;;5046481;28;19921;-75
2023/01/22 07:42:14;;;;;;;;;;;1.40;99.90;;;;;;5037830;28;19920;-74
2023/01/22 07:44:39;;;;;;;;;;;1.40;99.90;;;;;;5059488;28;19931;-74
2023/01/22 07:47:05;;;;;;;;;;;1.40;99.90;;;;;;5060240;28;19920;-72
2023/01/22 07:49:30;;;;;;;;;;;2.20;99.90;;;;;;5030010;28;20356;-77
2023/01/22 07:51:56;;;;;;;;;;;1.50;99.90;;;;;;5043555;28;19942;-75
2023/01/22 07:54:22;;;;;;;;;;;3.10;99.90;;;;;;5032791;28;19921;-82
2023/01/22 07:56:47;;;;;;;;;;;1.50;99.90;;;;;;5059623;28;19920;-75
2023/01/22 07:59:13;;;;;;;;;;;1.40;99.90;;;;;;5062898;28;19920;-73
2023/01/22 08:01:42;;;;;;;;;;;3.00;99.90;;;;;;5059945;28;20799;-73
2023/01/22 08:04:10;;;;;;;;;;;1.40;99.90;;;;;;5056386;28;19925;-74
2023/01/22 08:06:35;;;;;;;;;;;1.60;99.90;;;;;;5062698;28;19920;-75
2023/01/22 08:09:01;;;;;;;;;;;1.60;99.90;;;;;;5061067;28;20025;-76
2023/01/22 08:11:27;;;;;;;;;;;1.60;99.90;;;;;;5037341;28;19920;-85
2023/01/22 08:13:53;;;;;;;;;;;4.10;99.90;;;;;;5032085;28;19946;-81
2023/01/22 08:16:19;;;;;;;;;;;1.60;99.90;;;;;;5037886;28;19973;-75
2023/01/22 08:18:47;;;;;;;;;;;2.70;99.90;;;;;;5037387;28;19924;-76
2023/01/22 08:21:13;;;;;;;;;;;1.70;99.90;;;;;;5031921;28;20331;-79
2023/01/22 08:23:38;;;;;;;;;;;2.00;99.90;;;;;;5061379;28;20015;-77
2023/01/22 08:26:04;;;;;;;;;;;4.00;99.90;;;;;;5062684;28;20057;-74
2023/01/22 08:28:30;;;;;;;;;;;4.20;99.90;;;;;;5060613;28;20019;-74
2023/01/22 08:30:59;;;;;;;;;;;1.70;99.90;;;;;;5062238;28;20036;-77
2023/01/22 08:33:25;;;;;;;;;;;3.80;99.90;;;;;;5060025;28;19924;-79
2023/01/22 08:35:51;;;;;;;;;;;1.60;99.90;;;;;;5037582;28;19920;-77
2023/01/22 08:38:16;;;;;;;;;;;1.80;99.90;;;;;;5028398;28;19928;-79
2023/01/22 08:40:42;;;;;;;;;;;2.80;99.90;;;;;;5058112;28;20399;-76
2023/01/22 08:43:07;;;;;;;;;;;1.80;99.90;;;;;;5054339;28;19944;-76
2023/01/22 08:45:33;;;;;;;;;;;3.80;99.90;;;;;;5050518;28;20399;-73
2023/01/22 08:47:59;;;;;;;;;;;1.90;99.90;;;;;;5058539;28;19924;-73
2023/01/22 08:50:25;;;;;;;;;;;1.90;99.90;;;;;;5061483;28;19920;-72
2023/01/22 08:52:51;;;;;;;;;;;2.00;99.90;;;;;;5059870;28;19924;-72
2023/01/22 08:55:16;;;;;;;;;;;1.70;99.90;;;;;;5026193;28;19928;-73
2023/01/22 08:57:42;;;;;;;;;;;2.00;99.90;;;;;;5062298;28;19920;-78
2023/01/22 09:00:07;;;;;;;;;;;2.00;99.90;;;;;;5037960;28;19927;-72
2023/01/22 09:02:33;;;;;;;;;;;2.00;99.90;;;;;;5058238;28;20792;-74
2023/01/22 09:04:58;;;;;;;;;;;2.00;99.90;;;;;;5045391;28;20368;-74
2023/01/22 09:07:24;;;;;;;;;;;2.00;99.90;;;;;;5042264;28;20371;-72
2023/01/22 09:09:50;;;;;;;;;;;2.00;99.90;;;;;;5021786;28;19990;-73
2023/01/22 09:12:15;;;;;;;;;;;3.00;99.90;;;;;;5057063;28;19921;-70
2023/01/22 09:14:41;;;;;;;;;;;2.00;99.90;;;;;;5057259;28;19920;-71
2023/01/22 09:17:06;;;;;;;;;;;2.10;99.90;;;;;;5062518;28;19920;-71
2023/01/22 09:19:32;;;;;;;;;;;1.90;99.90;;;;;;5037288;28;19968;-71
2023/01/22 09:21:57;;;;;;;;;;;3.30;99.90;;;;;;5036171;28;19924;-71
2023/01/22 09:24:23;;;;;;;;;;;2.10;99.90;;;;;;5059002;28;19966;-72
2023/01/22 09:26:48;;;;;;;;;;;2.20;99.90;;;;;;5059187;28;19920;-72
2023/01/22 09:29:14;;;;;;;;;;;3.90;99.90;;;;;;5040530;28;19927;-71
2023/01/22 09:31:39;;;;;;;;;;;2.20;99.90;;;;;;5037215;28;19924;-71
2023/01/22 09:34:05;;;;;;;;;;;2.20;99.90;;;;;;5062756;28;19921;-71
2023/01/22 09:36:30;;;;;;;;;;;2.20;99.90;;;;;;5032349;28;19927;-71
2023/01/22 09:38:56;;;;;;;;;;;2.20;99.90;;;;;;5040803;28;19920;-71
2023/01/22 09:41:30;;;;;;;;;;;5.30;99.90;;;;;;5062944;28;19928;-71
2023/01/22 09:43:58;;;;;;;;;;;2.20;99.90;;;;;;5055517;28;20299;-71
2023/01/22 09:46:27;;;;;;;;;;;2.20;99.90;;;;;;5059771;28;20379;-71
2023/01/22 09:48:57;;;;;;;;;;;2.30;99.90;;;;;;5058841;28;20367;-71
2023/01/22 09:51:23;;;;;;;;;;;2.30;99.90;;;;;;5028633;28;19928;-71
2023/01/22 09:53:58;;;;;;;;;;;4.30;99.90;;;;;;5045079;28;19920;-71
2023/01/22 09:56:41;;;;;;;;;;;2.30;99.90;;;;;;5059403;28;19916;-71
2023/01/22 09:59:12;;;;;;;;;;;2.30;99.90;;;;;;5061403;28;19996;-71
2023/01/22 10:01:37;;;;;;;;;;;2.40;99.90;;;;;;5063974;28;20375;-71
2023/01/22 10:04:06;;;;;;;;;;;4.80;99.90;;;;;;5040069;28;20028;-71
2023/01/22 10:06:32;;;;;;;;;;;2.40;99.90;;;;;;5063678;28;19926;-71
2023/01/22 10:09:15;;;;;;;;;;;4.30;99.90;;;;;;5045187;28;19920;-71
2023/01/22 10:11:41;;;;;;;;;;;2.40;99.90;;;;;;5044855;28;19947;-71
2023/01/22 10:14:11;;;;;;;;;;;2.50;99.90;;;;;;5064684;28;19932;-72
2023/01/22 10:16:37;;;;;;;;;;;2.50;99.90;;;;;;5063729;28;19927;-71
2023/01/22 10:19:14;;;;;;;;;;;3.80;99.90;;;;;;5039580;28;19920;-71
2023/01/22 10:21:47;;;;;;;;;;;2.60;99.90;;;;;;5034548;28;19967;-70
2023/01/22 10:24:13;;;;;;;;;;;2.60;99.90;;;;;;5062526;28;19928;-71
2023/01/22 10:26:38;;;;;;;;;;;2.70;99.90;;;;;;5063953;28;19921;-71
2023/01/22 10:29:09;;;;;;;;;;;3.90;99.90;;;;;;5063736;28;19927;-71
2023/01/22 10:31:36;;;;;;;;;;;2.80;99.90;;;;;;5034029;28;19982;-71
2023/01/22 10:34:03;;;;;;;;;;;3.40;99.90;;;;;;5063131;28;20021;-70
2023/01/22 10:36:29;;;;;;;;;;;2.90;99.90;;;;;;5063285;28;20422;-71
2023/01/22 10:39:13;;;;;;;;;;;2.90;99.90;;;;;;5064670;28;19943;-71
2023/01/22 10:41:39;;;;;;;;;;;2.90;99.90;;;;;;5057187;28;19916;-72
2023/01/22 10:44:17;;;;;;;;;;;3.00;99.90;;;;;;5063557;28;19921;-72
2023/01/22 10:46:45;;;;;;;;;;;3.00;99.90;;;;;;5057224;28;19921;-72
2023/01/22 10:49:14;;;;;;;;;;;2.60;99.90;;;;;;5065093;28;20398;-72
2023/01/22 10:51:41;;;;;;;;;;;3.10;99.90;;;;;;5034604;28;20280;-72
2023/01/22 10:54:18;;;;;;;;;;;3.10;99.90;;;;;;5045277;28;20010;-74
2023/01/22 10:56:44;;;;;;;;;;;3.00;99.90;;;;;;5057920;28;19920;-70
2023/01/22 10:59:36;;;;;;;;;;;3.00;99.90;;;;;;5057923;28;19932;-73
2023/01/22 11:02:10;;;;;;;;;;;3.00;99.90;;;;;;5056295;28;19966;-73
2023/01/22 11:04:36;;;;;;;;;;;3.00;99.90;;;;;;5064123;28;20097;-73
2023/01/22 11:07:07;;;;;;;;;;;4.40;99.90;;;;;;5062146;28;20454;-73
2023/01/22 11:09:37;;;;;;;;;;;3.10;99.90;;;;;;5063793;28;19990;-73
2023/01/22 11:12:06;;;;;;;;;;;5.20;99.90;;;;;;5061638;28;19929;-72
2023/01/22 11:14:33;;;;;;;;;;;2.70;99.90;;;;;;5057881;28;19935;-72
2023/01/22 11:17:05;;;;;;;;;;;3.00;99.90;;;;;;5062018;28;19924;-72
2023/01/22 11:19:35;;;;;;;;;;;3.00;99.90;;;;;;5063971;28;19920;-72
2023/01/22 11:22:02;;;;;;;;;;;3.00;99.90;;;;;;5042948;28;19983;-68
2023/01/22 11:24:35;;;;;;;;;;;3.10;99.90;;;;;;5063580;28;19990;-71
2023/01/22 11:27:24;;;;;;;;;;;3.10;99.90;;;;;;5061726;28;19994;-70
2023/01/22 11:30:08;;;;;;;;;;;3.10;99.90;;;;;;5043327;28;19927;-71
2023/01/22 11:32:46;;;;;;;;;;;3.10;99.90;;;;;;5064221;28;19932;-71
2023/01/22 11:35:18;;;;;;;;;;;3.20;99.90;;;;;;5029737;28;19921;-72
2023/01/22 11:38:09;;;;;;;;;;;3.10;99.90;;;;;;5062758;28;19920;-71
2023/01/22 11:40:55;;;;;;;;;;;3.10;99.90;;;;;;5064214;28;20000;-72
2023/01/22 11:43:28;;;;;;;;;;;3.20;99.90;;;;;;5032574;28;20296;-72
2023/01/22 11:46:00;;;;;;;;;;;3.70;99.90;;;;;;5043543;28;19969;-72
2023/01/22 11:48:25;;;;;;;;;;;4.10;99.90;;;;;;5063112;28;19924;-71
2023/01/22 11:50:57;;;;;;;;;;;6.00;99.90;;;;;;5043285;28;20445;-71
2023/01/22 11:53:42;;;;;;;;;;;6.00;99.90;;;;;;5036329;28;19921;-71
2023/01/22 11:56:14;;;;;;;;;;;4.10;99.90;;;;;;5029081;28;19944;-71
2023/01/22 11:58:51;;;;;;;;;;;5.40;99.90;;;;;;5059649;28;19927;-71
2023/01/22 12:01:35;;;;;;;;;;;3.80;99.90;;;;;;5062230;28;19924;-69
2023/01/22 12:04:30;;;;;;;;;;;3.70;99.90;;;;;;5055870;28;19925;-71
2023/01/22 12:07:04;;;;;;;;;;;3.60;99.90;;;;;;5042110;28;20003;-71
2023/01/22 12:09:33;;;;;;;;;;;4.00;99.90;;;;;;5033211;28;20399;-71
2023/01/22 12:12:12;;;;;;;;;;;3.40;99.90;;;;;;5056884;28;20484;-69
2023/01/22 12:14:37;;;;;;;;;;;3.40;99.90;;;;;;5029459;28;19953;-69
2023/01/22 12:17:15;;;;;;;;;;;3.30;99.90;;;;;;5063473;28;19916;-68
2023/01/22 12:19:43;;;;;;;;;;;3.40;99.90;;;;;;5060920;28;19932;-70
2023/01/22 12:22:19;;;;;;;;;;;3.40;99.90;;;;;;5044757;28;19923;-70
2023/01/22 12:25:03;;;;;;;;;;;3.20;99.90;;;;;;5061084;28;20018;-71
2023/01/22 12:27:32;;;;;;;;;;;3.50;99.90;;;;;;5056420;28;19921;-71
2023/01/22 12:30:01;;;;;;;;;;;3.50;99.90;;;;;;5063942;28;19920;-71
2023/01/22 12:32:28;;;;;;;;;;;3.50;99.90;;;;;;5055254;28;19967;-71
2023/01/22 12:34:53;;;;;;;;;;;4.10;99.90;;;;;;5026642;28;20004;-70
2023/01/22 12:37:23;;;;;;;;;;;4.10;99.90;;;;;;5062243;28;20055;-70
2023/01/22 12:40:07;;;;;;;;;;;5.00;99.90;;;;;;5059904;28;19929;-70
2023/01/22 12:42:51;;;;;;;;;;;3.70;99.90;;;;;;5060135;28;19931;-70
2023/01/22 12:45:21;;;;;;;;;;;3.80;99.90;;;;;;5059367;28;19924;-70
2023/01/22 12:47:57;;;;;;;;;;;3.80;99.90;;;;;;5024159;28;20011;-70
2023/01/22 12:50:24;;;;;;;;;;;3.90;99.90;;;;;;5040969;28;19921;-70
2023/01/22 12:53:00;;;;;;;;;;;4.20;99.90;;;;;;5033695;28;20059;-71
2023/01/22 12:55:29;;;;;;;;;;;4.00;99.90;;;;;;5055711;28;20426;-70
2023/01/22 12:57:55;;;;;;;;;;;4.10;99.90;;;;;;5063278;28;20375;-70
2023/01/22 13:00:21;;;;;;;;;;;4.20;99.90;;;;;;5034018;28;19924;-69
2023/01/22 13:02:46;;;;;;;;;;;4.20;99.90;;;;;;5059599;28;19916;-70
2023/01/22 13:05:12;;;;;;;;;;;4.20;99.90;;;;;;5060460;28;20015;-70
2023/01/22 13:07:39;;;;;;;;;;;4.20;99.90;;;;;;5028488;28;20030;-70
2023/01/22 13:10:24;;;;;;;;;;;4.20;99.90;;;;;;5043136;28;19916;-70
2023/01/22 13:12:54;;;;;;;;;;;4.30;99.90;;;;;;5028784;28;20018;-70
2023/01/22 13:15:21;;;;;;;;;;;4.80;99.90;;;;;;5028951;28;19920;-70
2023/01/22 13:17:53;;;;;;;;;;;5.60;99.90;;;;;;5058782;28;20302;-69
2023/01/22 13:20:18;;;;;;;;;;;6.10;99.90;;;;;;5048273;28;19924;-69
2023/01/22 13:22:44;;;;;;;;;;;5.10;99.90;;;;;;5044418;28;19921;-69
2023/01/22 13:25:26;;;;;;;;;;;5.20;99.90;;;;;;5065238;28;19928;-69
2023/01/22 13:27:52;;;;;;;;;;;5.30;99.90;;;;;;5059347;28;20010;-69
2023/01/22 13:30:20;;;;;;;;;;;5.60;99.90;;;;;;5066025;28;19924;-69
2023/01/22 13:32:45;;;;;;;;;;;5.50;99.90;;;;;;5029240;28;20292;-69
2023/01/22 13:35:12;;;;;;;;;;;5.40;99.90;;;;;;5047016;28;19920;-69
2023/01/22 13:37:40;;;;;;;;;;;5.70;99.90;;;;;;5061476;28;19962;-69
2023/01/22 13:40:23;;;;;;;;;;;6.60;99.90;;;;;;5063551;28;20404;-69
2023/01/22 13:42:48;;;;;;;;;;;5.00;99.90;;;;;;5058878;28;19924;-69
2023/01/22 13:45:15;;;;;;;;;;;5.00;99.90;;;;;;5065335;28;19943;-69
2023/01/22 13:47:40;;;;;;;;;;;5.00;99.90;;;;;;5027742;28;19931;-69
2023/01/22 13:50:38;;;;;;;;;;;5.10;99.90;;;;;;5027715;28;19928;-69
2023/01/22 13:53:04;;;;;;;;;;;6.80;99.90;;;;;;5029908;28;20300;-69
2023/01/22 13:55:30;;;;;;;;;;;4.50;99.90;;;;;;5063640;28;19921;-69
2023/01/22 13:57:56;;;;;;;;;;;6.40;99.90;;;;;;5057543;28;19921;-69
2023/01/22 14:00:30;;;;;;;;;;;4.50;99.90;;;;;;5063474;28;19921;-69
2023/01/22 14:02:58;;;;;;;;;;;4.40;99.90;;;;;;5058148;28;19920;-69
2023/01/22 14:05:26;;;;;;;;;;;6.00;99.90;;;;;;5062515;28;19921;-69
2023/01/22 14:08:06;;;;;;;;;;;4.30;99.90;;;;;;5064143;28;19927;-69
2023/01/22 14:10:31;;;;;;;;;;;4.30;99.90;;;;;;5058906;28;19921;-69
2023/01/22 14:13:08;;;;;;;;;;;5.70;99.90;;;;;;5063115;28;19926;-69
2023/01/22 14:15:33;;;;;;;;;;;4.20;99.90;;;;;;5038876;28;20271;-69
2023/01/22 14:18:15;;;;;;;;;;;4.10;99.90;;;;;;5057949;28;19974;-70
2023/01/22 14:20:41;;;;;;;;;;;4.10;99.90;;;;;;5030953;28;19928;-70
2023/01/22 14:23:07;;;;;;;;;;;4.10;99.90;;;;;;5061492;28;19944;-70
2023/01/22 14:25:37;;;;;;;;;;;5.50;99.90;;;;;;5063998;28;20364;-71
2023/01/22 14:28:08;;;;;;;;;;;4.10;99.90;;;;;;5043948;28;19931;-71
2023/01/22 14:30:34;;;;;;;;;;;3.80;99.90;;;;;;5026633;28;19924;-68
2023/01/22 14:32:59;;;;;;;;;;;4.30;99.90;;;;;;5061395;28;19935;-70
2023/01/22 14:35:37;;;;;;;;;;;5.30;99.90;;;;;;5034192;28;19928;-71
2023/01/22 14:38:02;;;;;;;;;;;3.80;99.90;;;;;;5030013;28;20007;-70
2023/01/22 14:40:29;;;;;;;;;;;5.90;99.90;;;;;;5058885;28;20005;-70
2023/01/22 14:42:54;;;;;;;;;;;5.40;99.90;;;;;;5062346;28;19920;-72
2023/01/22 14:45:20;;;;;;;;;;;4.90;99.90;;;;;;5027886;28;20007;-69